CheckWX is a tool to help pilots better visualize weather data.  It is not intended as a substitute for an official pre-flight weather briefing.

12:55:55 UTC

LKMT METAR
Ostrava Leos Janáček Airport
Ostrava, Czech Republic
Current

26 mins ago

LKMT 081230Z 20018KT 9999 FEW035 09/03 Q1010 NOSIG
Observed
Dec-8 @ 12:30 UTC
Wind
  • 200° at 18 KTS
Visibility
10,000+ meters
Flight Rules
VFR
Cloud Levels
  • Few at 3,500' AGL
Temperature
C / 48°F
Dewpoint
C / 37°F
Humidity
66%
Altimeter
29.82" Hg
Pressure
1009.92 hPa
Previous

56 mins ago

LKMT 081200Z 20017KT 9999 SCT044 09/03 Q1010 NOSIG
Observed
Dec-8 @ 12:00 UTC
Wind
  • 200° at 17 KTS
Visibility
10,000+ meters
Flight Rules
VFR
Cloud Levels
  • Scattered at 4,400' AGL
Temperature
C / 48°F
Dewpoint
C / 37°F
Humidity
66%
Altimeter
29.82" Hg
Pressure
1009.92 hPa
Previous

1 hour ago

LKMT 081130Z 21018KT 9999 SCT044 09/03 Q1011 NOSIG
Observed
Dec-8 @ 11:30 UTC
Wind
  • 210° at 18 KTS
Visibility
10,000+ meters
Flight Rules
VFR
Cloud Levels
  • Scattered at 4,400' AGL
Temperature
C / 48°F
Dewpoint
C / 37°F
Humidity
66%
Altimeter
29.85" Hg
Pressure
1010.92 hPa